sensor_id;sensor_type;location;lat;lon;timestamp;P1;durP1;ratioP1;P2;durP2;ratioP2
26060;SDS011;36331;51.378;0.018;2022-07-29T00:01:41;4.78;;;1.88;;
26060;SDS011;36331;51.378;0.018;2022-07-29T00:04:10;8.00;;;2.45;;
26060;SDS011;36331;51.378;0.018;2022-07-29T00:06:41;5.78;;;2.47;;
26060;SDS011;36331;51.378;0.018;2022-07-29T00:09:10;4.00;;;2.20;;
26060;SDS011;36331;51.378;0.018;2022-07-29T00:11:39;6.55;;;3.28;;
26060;SDS011;36331;51.378;0.018;2022-07-29T00:14:08;7.07;;;3.30;;
26060;SDS011;36331;51.378;0.018;2022-07-29T00:16:39;3.40;;;2.70;;
26060;SDS011;36331;51.378;0.018;2022-07-29T00:19:08;7.55;;;3.20;;
26060;SDS011;36331;51.378;0.018;2022-07-29T00:21:38;6.15;;;2.05;;
26060;SDS011;36331;51.378;0.018;2022-07-29T00:24:07;7.85;;;2.92;;
26060;SDS011;36331;51.378;0.018;2022-07-29T00:26:37;6.65;;;3.15;;
26060;SDS011;36331;51.378;0.018;2022-07-29T00:29:06;4.72;;;2.72;;
26060;SDS011;36331;51.378;0.018;2022-07-29T00:31:56;5.03;;;2.25;;
26060;SDS011;36331;51.378;0.018;2022-07-29T00:34:25;4.20;;;1.90;;
26060;SDS011;36331;51.378;0.018;2022-07-29T00:37:12;4.95;;;2.20;;
26060;SDS011;36331;51.378;0.018;2022-07-29T00:39:41;4.38;;;1.80;;
26060;SDS011;36331;51.378;0.018;2022-07-29T00:42:10;2.72;;;1.60;;
26060;SDS011;36331;51.378;0.018;2022-07-29T00:44:40;2.25;;;1.58;;
26060;SDS011;36331;51.378;0.018;2022-07-29T00:47:11;5.72;;;1.70;;
26060;SDS011;36331;51.378;0.018;2022-07-29T00:49:41;3.90;;;1.42;;
26060;SDS011;36331;51.378;0.018;2022-07-29T00:52:10;6.43;;;1.67;;
26060;SDS011;36331;51.378;0.018;2022-07-29T00:54:43;6.07;;;2.30;;
26060;SDS011;36331;51.378;0.018;2022-07-29T00:57:12;5.93;;;2.67;;
26060;SDS011;36331;51.378;0.018;2022-07-29T00:59:41;5.68;;;2.33;;
26060;SDS011;36331;51.378;0.018;2022-07-29T01:02:12;4.30;;;2.28;;
26060;SDS011;36331;51.378;0.018;2022-07-29T01:04:41;5.35;;;1.98;;
26060;SDS011;36331;51.378;0.018;2022-07-29T01:07:10;2.97;;;1.90;;
26060;SDS011;36331;51.378;0.018;2022-07-29T01:09:39;3.75;;;2.38;;
26060;SDS011;36331;51.378;0.018;2022-07-29T01:12:13;5.97;;;1.85;;
26060;SDS011;36331;51.378;0.018;2022-07-29T01:14:44;6.47;;;1.80;;
26060;SDS011;36331;51.378;0.018;2022-07-29T01:17:17;5.45;;;1.90;;
26060;SDS011;36331;51.378;0.018;2022-07-29T01:19:48;4.32;;;2.47;;
26060;SDS011;36331;51.378;0.018;2022-07-29T01:22:27;3.47;;;1.90;;
26060;SDS011;36331;51.378;0.018;2022-07-29T01:25:03;4.18;;;1.42;;
26060;SDS011;36331;51.378;0.018;2022-07-29T01:27:38;5.95;;;2.10;;
26060;SDS011;36331;51.378;0.018;2022-07-29T01:30:12;4.63;;;1.38;;
26060;SDS011;36331;51.378;0.018;2022-07-29T01:32:42;5.32;;;1.63;;
26060;SDS011;36331;51.378;0.018;2022-07-29T01:35:15;4.95;;;1.85;;
26060;SDS011;36331;51.378;0.018;2022-07-29T01:37:46;5.05;;;1.85;;
26060;SDS011;36331;51.378;0.018;2022-07-29T01:40:19;3.28;;;1.63;;
26060;SDS011;36331;51.378;0.018;2022-07-29T01:42:49;5.20;;;1.77;;
26060;SDS011;36331;51.378;0.018;2022-07-29T01:45:21;6.07;;;1.65;;
26060;SDS011;36331;51.378;0.018;2022-07-29T01:47:54;3.25;;;1.55;;
26060;SDS011;36331;51.378;0.018;2022-07-29T01:50:26;2.05;;;1.25;;
26060;SDS011;36331;51.378;0.018;2022-07-29T01:55:27;3.22;;;1.35;;
26060;SDS011;36331;51.378;0.018;2022-07-29T01:57:57;2.38;;;1.55;;
26060;SDS011;36331;51.378;0.018;2022-07-29T02:00:29;3.90;;;1.83;;
26060;SDS011;36331;51.378;0.018;2022-07-29T02:02:58;2.10;;;1.23;;
26060;SDS011;36331;51.378;0.018;2022-07-29T02:05:28;3.17;;;1.30;;
26060;SDS011;36331;51.378;0.018;2022-07-29T02:07:57;5.85;;;1.30;;
26060;SDS011;36331;51.378;0.018;2022-07-29T02:10:28;3.05;;;1.30;;
26060;SDS011;36331;51.378;0.018;2022-07-29T02:12:58;4.50;;;1.63;;
26060;SDS011;36331;51.378;0.018;2022-07-29T02:15:30;2.20;;;1.30;;
26060;SDS011;36331;51.378;0.018;2022-07-29T02:18:01;2.80;;;1.50;;
26060;SDS011;36331;51.378;0.018;2022-07-29T02:20:30;3.97;;;1.65;;
26060;SDS011;36331;51.378;0.018;2022-07-29T02:23:00;2.85;;;1.20;;
26060;SDS011;36331;51.378;0.018;2022-07-29T02:25:30;2.97;;;1.30;;
26060;SDS011;36331;51.378;0.018;2022-07-29T02:28:04;2.30;;;1.58;;
26060;SDS011;36331;51.378;0.018;2022-07-29T02:30:36;3.47;;;1.20;;
26060;SDS011;36331;51.378;0.018;2022-07-29T02:33:08;2.97;;;1.48;;
26060;SDS011;36331;51.378;0.018;2022-07-29T02:35:38;4.75;;;1.58;;
26060;SDS011;36331;51.378;0.018;2022-07-29T02:38:09;5.20;;;1.67;;
26060;SDS011;36331;51.378;0.018;2022-07-29T02:40:58;4.40;;;1.73;;
26060;SDS011;36331;51.378;0.018;2022-07-29T02:43:28;5.03;;;1.33;;
26060;SDS011;36331;51.378;0.018;2022-07-29T02:46:00;4.85;;;1.75;;
26060;SDS011;36331;51.378;0.018;2022-07-29T02:48:42;3.83;;;2.47;;
26060;SDS011;36331;51.378;0.018;2022-07-29T02:51:13;4.93;;;1.35;;
26060;SDS011;36331;51.378;0.018;2022-07-29T02:54:06;3.75;;;1.55;;
26060;SDS011;36331;51.378;0.018;2022-07-29T02:56:36;2.83;;;1.30;;
26060;SDS011;36331;51.378;0.018;2022-07-29T02:59:07;2.53;;;1.25;;
26060;SDS011;36331;51.378;0.018;2022-07-29T03:01:40;6.30;;;2.40;;
26060;SDS011;36331;51.378;0.018;2022-07-29T03:06:40;3.83;;;1.50;;
26060;SDS011;36331;51.378;0.018;2022-07-29T03:09:10;5.38;;;1.70;;
26060;SDS011;36331;51.378;0.018;2022-07-29T03:11:40;2.83;;;1.67;;
26060;SDS011;36331;51.378;0.018;2022-07-29T03:14:16;5.80;;;2.13;;
26060;SDS011;36331;51.378;0.018;2022-07-29T03:16:48;2.60;;;1.60;;
26060;SDS011;36331;51.378;0.018;2022-07-29T03:19:18;4.72;;;1.77;;
26060;SDS011;36331;51.378;0.018;2022-07-29T03:21:47;2.90;;;1.73;;
26060;SDS011;36331;51.378;0.018;2022-07-29T03:24:26;2.97;;;2.03;;
26060;SDS011;36331;51.378;0.018;2022-07-29T03:26:56;3.22;;;1.60;;
26060;SDS011;36331;51.378;0.018;2022-07-29T03:29:25;3.75;;;1.65;;
26060;SDS011;36331;51.378;0.018;2022-07-29T03:32:02;2.60;;;1.80;;
26060;SDS011;36331;51.378;0.018;2022-07-29T03:34:34;4.10;;;2.28;;
26060;SDS011;36331;51.378;0.018;2022-07-29T03:37:05;3.47;;;2.25;;
26060;SDS011;36331;51.378;0.018;2022-07-29T03:39:36;3.95;;;2.28;;
26060;SDS011;36331;51.378;0.018;2022-07-29T03:42:07;8.10;;;2.80;;
26060;SDS011;36331;51.378;0.018;2022-07-29T03:44:38;5.17;;;3.53;;
26060;SDS011;36331;51.378;0.018;2022-07-29T03:47:10;4.07;;;2.80;;
26060;SDS011;36331;51.378;0.018;2022-07-29T03:49:39;3.33;;;2.15;;
26060;SDS011;36331;51.378;0.018;2022-07-29T03:52:09;5.00;;;2.40;;
26060;SDS011;36331;51.378;0.018;2022-07-29T03:54:38;3.90;;;2.35;;
26060;SDS011;36331;51.378;0.018;2022-07-29T03:57:07;5.28;;;2.50;;
26060;SDS011;36331;51.378;0.018;2022-07-29T03:59:38;7.47;;;3.03;;
26060;SDS011;36331;51.378;0.018;2022-07-29T04:02:11;3.88;;;2.40;;
26060;SDS011;36331;51.378;0.018;2022-07-29T04:04:43;2.58;;;1.98;;
26060;SDS011;36331;51.378;0.018;2022-07-29T04:07:12;6.80;;;2.47;;
26060;SDS011;36331;51.378;0.018;2022-07-29T04:09:42;4.53;;;2.50;;
26060;SDS011;36331;51.378;0.018;2022-07-29T04:12:11;3.45;;;2.63;;
26060;SDS011;36331;51.378;0.018;2022-07-29T04:14:40;5.07;;;2.20;;
26060;SDS011;36331;51.378;0.018;2022-07-29T04:17:11;4.75;;;2.38;;
26060;SDS011;36331;51.378;0.018;2022-07-29T04:19:40;4.53;;;1.90;;
26060;SDS011;36331;51.378;0.018;2022-07-29T04:22:09;5.20;;;2.60;;
26060;SDS011;36331;51.378;0.018;2022-07-29T04:24:38;3.13;;;2.17;;
26060;SDS011;36331;51.378;0.018;2022-07-29T04:27:10;3.78;;;2.65;;
26060;SDS011;36331;51.378;0.018;2022-07-29T04:29:39;2.90;;;2.30;;
26060;SDS011;36331;51.378;0.018;2022-07-29T04:32:24;5.75;;;2.58;;
26060;SDS011;36331;51.378;0.018;2022-07-29T04:34:54;4.55;;;2.17;;
26060;SDS011;36331;51.378;0.018;2022-07-29T04:37:23;3.80;;;2.40;;
26060;SDS011;36331;51.378;0.018;2022-07-29T04:39:52;3.70;;;2.50;;
26060;SDS011;36331;51.378;0.018;2022-07-29T04:42:21;2.97;;;1.90;;
26060;SDS011;36331;51.378;0.018;2022-07-29T04:44:53;6.47;;;2.63;;
26060;SDS011;36331;51.378;0.018;2022-07-29T04:47:22;3.22;;;2.05;;
26060;SDS011;36331;51.378;0.018;2022-07-29T04:49:53;5.07;;;2.38;;
26060;SDS011;36331;51.378;0.018;2022-07-29T04:52:23;4.47;;;2.73;;
26060;SDS011;36331;51.378;0.018;2022-07-29T04:54:52;3.30;;;2.40;;
26060;SDS011;36331;51.378;0.018;2022-07-29T04:57:21;3.55;;;2.20;;
26060;SDS011;36331;51.378;0.018;2022-07-29T04:59:51;4.15;;;2.20;;
26060;SDS011;36331;51.378;0.018;2022-07-29T05:02:20;4.75;;;2.55;;
26060;SDS011;36331;51.378;0.018;2022-07-29T05:04:49;7.28;;;2.20;;
26060;SDS011;36331;51.378;0.018;2022-07-29T05:07:20;5.00;;;2.30;;
26060;SDS011;36331;51.378;0.018;2022-07-29T05:09:50;5.45;;;2.13;;
26060;SDS011;36331;51.378;0.018;2022-07-29T05:12:20;4.38;;;2.20;;
26060;SDS011;36331;51.378;0.018;2022-07-29T05:14:49;3.47;;;2.10;;
26060;SDS011;36331;51.378;0.018;2022-07-29T05:17:18;3.08;;;2.10;;
26060;SDS011;36331;51.378;0.018;2022-07-29T05:19:56;3.13;;;2.25;;
26060;SDS011;36331;51.378;0.018;2022-07-29T05:22:29;3.88;;;2.15;;
26060;SDS011;36331;51.378;0.018;2022-07-29T05:24:58;3.63;;;2.08;;
26060;SDS011;36331;51.378;0.018;2022-07-29T05:27:34;5.47;;;2.20;;
26060;SDS011;36331;51.378;0.018;2022-07-29T05:30:04;3.40;;;1.83;;
26060;SDS011;36331;51.378;0.018;2022-07-29T05:32:36;2.65;;;1.42;;
26060;SDS011;36331;51.378;0.018;2022-07-29T05:35:06;3.45;;;1.80;;
26060;SDS011;36331;51.378;0.018;2022-07-29T05:37:36;3.63;;;1.90;;
26060;SDS011;36331;51.378;0.018;2022-07-29T05:40:06;2.63;;;1.67;;
26060;SDS011;36331;51.378;0.018;2022-07-29T05:42:35;4.80;;;1.88;;
26060;SDS011;36331;51.378;0.018;2022-07-29T05:45:05;4.45;;;1.75;;
26060;SDS011;36331;51.378;0.018;2022-07-29T05:47:36;6.38;;;1.50;;
26060;SDS011;36331;51.378;0.018;2022-07-29T05:50:06;4.80;;;1.70;;
26060;SDS011;36331;51.378;0.018;2022-07-29T05:52:37;4.47;;;1.60;;
26060;SDS011;36331;51.378;0.018;2022-07-29T05:55:06;5.72;;;1.50;;
26060;SDS011;36331;51.378;0.018;2022-07-29T05:57:35;3.55;;;1.42;;
26060;SDS011;36331;51.378;0.018;2022-07-29T06:00:05;2.92;;;1.65;;
26060;SDS011;36331;51.378;0.018;2022-07-29T06:02:43;5.38;;;1.90;;
26060;SDS011;36331;51.378;0.018;2022-07-29T06:05:16;6.22;;;1.73;;
26060;SDS011;36331;51.378;0.018;2022-07-29T06:07:47;4.32;;;1.83;;
26060;SDS011;36331;51.378;0.018;2022-07-29T06:10:17;4.03;;;1.70;;
26060;SDS011;36331;51.378;0.018;2022-07-29T06:12:52;4.78;;;1.77;;
26060;SDS011;36331;51.378;0.018;2022-07-29T06:15:21;4.57;;;1.70;;
26060;SDS011;36331;51.378;0.018;2022-07-29T06:17:51;4.05;;;1.40;;
26060;SDS011;36331;51.378;0.018;2022-07-29T06:20:27;5.47;;;1.30;;
26060;SDS011;36331;51.378;0.018;2022-07-29T06:22:59;5.88;;;2.03;;
26060;SDS011;36331;51.378;0.018;2022-07-29T06:25:31;3.38;;;1.13;;
26060;SDS011;36331;51.378;0.018;2022-07-29T06:28:03;6.95;;;1.67;;
26060;SDS011;36331;51.378;0.018;2022-07-29T06:30:32;3.67;;;1.77;;
26060;SDS011;36331;51.378;0.018;2022-07-29T06:33:01;6.18;;;1.60;;
26060;SDS011;36331;51.378;0.018;2022-07-29T06:35:32;4.60;;;2.30;;
26060;SDS011;36331;51.378;0.018;2022-07-29T06:38:10;5.88;;;2.17;;
26060;SDS011;36331;51.378;0.018;2022-07-29T06:40:59;3.33;;;1.60;;
26060;SDS011;36331;51.378;0.018;2022-07-29T06:43:30;5.50;;;2.22;;
26060;SDS011;36331;51.378;0.018;2022-07-29T06:46:01;4.38;;;1.65;;
26060;SDS011;36331;51.378;0.018;2022-07-29T06:48:31;4.07;;;1.90;;
26060;SDS011;36331;51.378;0.018;2022-07-29T06:51:00;7.00;;;2.20;;
26060;SDS011;36331;51.378;0.018;2022-07-29T06:53:33;5.30;;;1.63;;
26060;SDS011;36331;51.378;0.018;2022-07-29T06:56:03;7.88;;;2.00;;
26060;SDS011;36331;51.378;0.018;2022-07-29T06:58:35;7.13;;;1.92;;
26060;SDS011;36331;51.378;0.018;2022-07-29T07:01:05;4.88;;;2.42;;
26060;SDS011;36331;51.378;0.018;2022-07-29T07:03:35;7.97;;;2.20;;
26060;SDS011;36331;51.378;0.018;2022-07-29T07:06:04;4.68;;;1.33;;
26060;SDS011;36331;51.378;0.018;2022-07-29T07:08:42;3.63;;;1.48;;
26060;SDS011;36331;51.378;0.018;2022-07-29T07:11:11;6.72;;;2.47;;
26060;SDS011;36331;51.378;0.018;2022-07-29T07:13:40;4.05;;;1.77;;
26060;SDS011;36331;51.378;0.018;2022-07-29T07:16:09;6.25;;;1.83;;
26060;SDS011;36331;51.378;0.018;2022-07-29T07:18:39;7.18;;;1.83;;
26060;SDS011;36331;51.378;0.018;2022-07-29T07:21:08;5.20;;;2.20;;
26060;SDS011;36331;51.378;0.018;2022-07-29T07:23:46;3.85;;;1.90;;
26060;SDS011;36331;51.378;0.018;2022-07-29T07:26:15;3.97;;;1.70;;
26060;SDS011;36331;51.378;0.018;2022-07-29T07:28:45;7.45;;;1.90;;
26060;SDS011;36331;51.378;0.018;2022-07-29T07:31:17;3.40;;;1.80;;
26060;SDS011;36331;51.378;0.018;2022-07-29T07:33:46;3.92;;;1.83;;
26060;SDS011;36331;51.378;0.018;2022-07-29T07:36:15;9.07;;;1.77;;
26060;SDS011;36331;51.378;0.018;2022-07-29T07:38:46;4.25;;;2.08;;
26060;SDS011;36331;51.378;0.018;2022-07-29T07:41:15;5.03;;;2.38;;
26060;SDS011;36331;51.378;0.018;2022-07-29T07:43:44;3.70;;;1.80;;
26060;SDS011;36331;51.378;0.018;2022-07-29T07:46:14;7.72;;;2.03;;
26060;SDS011;36331;51.378;0.018;2022-07-29T07:48:45;7.60;;;2.38;;
26060;SDS011;36331;51.378;0.018;2022-07-29T07:51:18;10.18;;;1.90;;
26060;SDS011;36331;51.378;0.018;2022-07-29T07:53:49;5.45;;;1.77;;
26060;SDS011;36331;51.378;0.018;2022-07-29T07:56:19;5.22;;;2.00;;
26060;SDS011;36331;51.378;0.018;2022-07-29T07:58:48;7.45;;;2.10;;
26060;SDS011;36331;51.378;0.018;2022-07-29T08:01:18;4.47;;;1.88;;
26060;SDS011;36331;51.378;0.018;2022-07-29T08:03:50;6.75;;;1.85;;
26060;SDS011;36331;51.378;0.018;2022-07-29T08:06:19;4.43;;;2.08;;
26060;SDS011;36331;51.378;0.018;2022-07-29T08:08:52;4.85;;;1.70;;
26060;SDS011;36331;51.378;0.018;2022-07-29T08:11:22;4.65;;;1.98;;
26060;SDS011;36331;51.378;0.018;2022-07-29T08:13:51;4.07;;;1.45;;
26060;SDS011;36331;51.378;0.018;2022-07-29T08:16:20;6.95;;;1.60;;
26060;SDS011;36331;51.378;0.018;2022-07-29T08:18:52;4.70;;;1.20;;
26060;SDS011;36331;51.378;0.018;2022-07-29T08:21:23;4.20;;;1.45;;
26060;SDS011;36331;51.378;0.018;2022-07-29T08:23:54;2.60;;;1.15;;
26060;SDS011;36331;51.378;0.018;2022-07-29T08:26:44;3.60;;;0.97;;
26060;SDS011;36331;51.378;0.018;2022-07-29T08:29:13;3.05;;;1.02;;
26060;SDS011;36331;51.378;0.018;2022-07-29T08:31:46;3.00;;;1.50;;
26060;SDS011;36331;51.378;0.018;2022-07-29T08:34:15;4.30;;;1.38;;
26060;SDS011;36331;51.378;0.018;2022-07-29T08:36:54;5.95;;;1.52;;
26060;SDS011;36331;51.378;0.018;2022-07-29T08:39:25;7.15;;;1.90;;
26060;SDS011;36331;51.378;0.018;2022-07-29T08:41:54;1.55;;;1.33;;
26060;SDS011;36331;51.378;0.018;2022-07-29T08:44:25;4.63;;;2.57;;
26060;SDS011;36331;51.378;0.018;2022-07-29T08:46:57;7.20;;;1.88;;
26060;SDS011;36331;51.378;0.018;2022-07-29T08:49:26;3.92;;;1.17;;
26060;SDS011;36331;51.378;0.018;2022-07-29T08:51:56;3.33;;;1.25;;
26060;SDS011;36331;51.378;0.018;2022-07-29T08:54:27;2.47;;;0.93;;
26060;SDS011;36331;51.378;0.018;2022-07-29T08:56:57;3.33;;;1.00;;
26060;SDS011;36331;51.378;0.018;2022-07-29T08:59:27;2.75;;;0.50;;
26060;SDS011;36331;51.378;0.018;2022-07-29T09:01:57;3.67;;;0.82;;
26060;SDS011;36331;51.378;0.018;2022-07-29T09:04:29;3.83;;;1.30;;
26060;SDS011;36331;51.378;0.018;2022-07-29T09:06:59;3.83;;;0.90;;
26060;SDS011;36331;51.378;0.018;2022-07-29T09:09:31;5.75;;;0.80;;
26060;SDS011;36331;51.378;0.018;2022-07-29T09:12:02;3.35;;;0.90;;
26060;SDS011;36331;51.378;0.018;2022-07-29T09:14:33;3.47;;;1.23;;
26060;SDS011;36331;51.378;0.018;2022-07-29T09:17:09;7.55;;;1.30;;
26060;SDS011;36331;51.378;0.018;2022-07-29T09:19:38;3.45;;;0.82;;
26060;SDS011;36331;51.378;0.018;2022-07-29T09:22:11;3.13;;;0.80;;
26060;SDS011;36331;51.378;0.018;2022-07-29T09:24:43;2.92;;;0.88;;
26060;SDS011;36331;51.378;0.018;2022-07-29T09:27:21;4.50;;;1.10;;
26060;SDS011;36331;51.378;0.018;2022-07-29T09:29:57;5.63;;;1.38;;
26060;SDS011;36331;51.378;0.018;2022-07-29T09:32:26;2.78;;;0.88;;
26060;SDS011;36331;51.378;0.018;2022-07-29T09:35:16;3.55;;;1.13;;
26060;SDS011;36331;51.378;0.018;2022-07-29T09:37:45;3.65;;;0.85;;
26060;SDS011;36331;51.378;0.018;2022-07-29T09:40:17;6.15;;;1.05;;
26060;SDS011;36331;51.378;0.018;2022-07-29T09:42:47;1.65;;;0.82;;
26060;SDS011;36331;51.378;0.018;2022-07-29T09:45:25;3.92;;;1.27;;
26060;SDS011;36331;51.378;0.018;2022-07-29T09:47:55;2.45;;;0.85;;
26060;SDS011;36331;51.378;0.018;2022-07-29T09:50:37;5.95;;;1.15;;
26060;SDS011;36331;51.378;0.018;2022-07-29T09:53:07;5.88;;;1.75;;
26060;SDS011;36331;51.378;0.018;2022-07-29T09:55:49;3.70;;;1.17;;
26060;SDS011;36331;51.378;0.018;2022-07-29T09:58:19;2.88;;;1.50;;
26060;SDS011;36331;51.378;0.018;2022-07-29T10:00:50;4.78;;;1.20;;
26060;SDS011;36331;51.378;0.018;2022-07-29T10:03:20;4.55;;;1.48;;
26060;SDS011;36331;51.378;0.018;2022-07-29T10:06:03;3.78;;;1.45;;
26060;SDS011;36331;51.378;0.018;2022-07-29T10:08:33;5.72;;;1.52;;
26060;SDS011;36331;51.378;0.018;2022-07-29T10:11:11;3.72;;;1.48;;
26060;SDS011;36331;51.378;0.018;2022-07-29T10:13:41;4.10;;;1.02;;
26060;SDS011;36331;51.378;0.018;2022-07-29T10:16:10;4.28;;;1.70;;
26060;SDS011;36331;51.378;0.018;2022-07-29T10:18:40;7.43;;;1.27;;
26060;SDS011;36331;51.378;0.018;2022-07-29T10:21:10;4.70;;;1.50;;
26060;SDS011;36331;51.378;0.018;2022-07-29T10:23:59;4.63;;;1.13;;
26060;SDS011;36331;51.378;0.018;2022-07-29T10:26:30;3.63;;;1.65;;
26060;SDS011;36331;51.378;0.018;2022-07-29T10:29:00;5.90;;;2.80;;
26060;SDS011;36331;51.378;0.018;2022-07-29T10:31:40;2.85;;;1.17;;
26060;SDS011;36331;51.378;0.018;2022-07-29T10:34:13;5.53;;;1.23;;
26060;SDS011;36331;51.378;0.018;2022-07-29T10:36:51;2.47;;;1.50;;
26060;SDS011;36331;51.378;0.018;2022-07-29T10:39:31;4.03;;;1.50;;
26060;SDS011;36331;51.378;0.018;2022-07-29T10:42:14;3.53;;;1.05;;
26060;SDS011;36331;51.378;0.018;2022-07-29T10:44:59;3.17;;;1.10;;
26060;SDS011;36331;51.378;0.018;2022-07-29T10:47:30;3.90;;;1.13;;
26060;SDS011;36331;51.378;0.018;2022-07-29T10:50:02;5.97;;;1.30;;
26060;SDS011;36331;51.378;0.018;2022-07-29T10:55:33;5.00;;;1.10;;
26060;SDS011;36331;51.378;0.018;2022-07-29T10:58:13;1.65;;;1.20;;
26060;SDS011;36331;51.378;0.018;2022-07-29T11:00:44;2.63;;;1.15;;
26060;SDS011;36331;51.378;0.018;2022-07-29T11:06:17;3.88;;;1.70;;
26060;SDS011;36331;51.378;0.018;2022-07-29T11:11:42;2.78;;;0.85;;
26060;SDS011;36331;51.378;0.018;2022-07-29T11:14:19;4.00;;;0.77;;
26060;SDS011;36331;51.378;0.018;2022-07-29T11:17:09;2.03;;;0.80;;
26060;SDS011;36331;51.378;0.018;2022-07-29T11:19:40;3.70;;;1.05;;
26060;SDS011;36331;51.378;0.018;2022-07-29T11:22:31;7.22;;;1.75;;
26060;SDS011;36331;51.378;0.018;2022-07-29T11:28:08;2.83;;;1.00;;
26060;SDS011;36331;51.378;0.018;2022-07-29T11:30:48;2.10;;;0.98;;
26060;SDS011;36331;51.378;0.018;2022-07-29T11:33:28;2.10;;;0.60;;
26060;SDS011;36331;51.378;0.018;2022-07-29T11:36:18;1.88;;;0.90;;
26060;SDS011;36331;51.378;0.018;2022-07-29T11:39:25;4.05;;;0.90;;
26060;SDS011;36331;51.378;0.018;2022-07-29T11:45:01;2.45;;;0.80;;
26060;SDS011;36331;51.378;0.018;2022-07-29T11:47:55;2.47;;;1.05;;
26060;SDS011;36331;51.378;0.018;2022-07-29T11:50:46;3.55;;;1.15;;
26060;SDS011;36331;51.378;0.018;2022-07-29T11:53:17;5.80;;;1.27;;
26060;SDS011;36331;51.378;0.018;2022-07-29T11:55:46;1.23;;;0.70;;
26060;SDS011;36331;51.378;0.018;2022-07-29T11:58:24;2.70;;;0.80;;
26060;SDS011;36331;51.378;0.018;2022-07-29T12:00:53;1.77;;;0.80;;
26060;SDS011;36331;51.378;0.018;2022-07-29T12:03:25;3.92;;;0.75;;
26060;SDS011;36331;51.378;0.018;2022-07-29T12:06:14;3.00;;;1.02;;
26060;SDS011;36331;51.378;0.018;2022-07-29T12:08:47;1.58;;;0.82;;
26060;SDS011;36331;51.378;0.018;2022-07-29T12:11:16;3.10;;;0.98;;
26060;SDS011;36331;51.378;0.018;2022-07-29T12:16:17;2.83;;;1.02;;
26060;SDS011;36331;51.378;0.018;2022-07-29T12:18:58;4.38;;;1.63;;
26060;SDS011;36331;51.378;0.018;2022-07-29T12:21:29;4.18;;;0.70;;
26060;SDS011;36331;51.378;0.018;2022-07-29T12:24:05;2.20;;;0.88;;
26060;SDS011;36331;51.378;0.018;2022-07-29T12:26:35;1.90;;;0.95;;
26060;SDS011;36331;51.378;0.018;2022-07-29T12:29:07;4.05;;;1.10;;
26060;SDS011;36331;51.378;0.018;2022-07-29T12:31:59;5.45;;;1.50;;
26060;SDS011;36331;51.378;0.018;2022-07-29T12:34:34;1.85;;;1.13;;
26060;SDS011;36331;51.378;0.018;2022-07-29T12:37:03;4.97;;;1.00;;
26060;SDS011;36331;51.378;0.018;2022-07-29T12:39:36;3.03;;;0.90;;
26060;SDS011;36331;51.378;0.018;2022-07-29T12:42:12;4.00;;;0.90;;
26060;SDS011;36331;51.378;0.018;2022-07-29T12:44:45;3.55;;;1.00;;
26060;SDS011;36331;51.378;0.018;2022-07-29T12:47:15;1.92;;;0.57;;
26060;SDS011;36331;51.378;0.018;2022-07-29T12:49:46;2.60;;;0.80;;
26060;SDS011;36331;51.378;0.018;2022-07-29T12:52:26;1.80;;;0.90;;
26060;SDS011;36331;51.378;0.018;2022-07-29T12:54:55;4.32;;;1.02;;
26060;SDS011;36331;51.378;0.018;2022-07-29T12:57:28;2.53;;;0.82;;
26060;SDS011;36331;51.378;0.018;2022-07-29T12:59:59;1.98;;;0.80;;
26060;SDS011;36331;51.378;0.018;2022-07-29T13:02:29;2.60;;;0.68;;
26060;SDS011;36331;51.378;0.018;2022-07-29T13:05:01;2.35;;;0.80;;
26060;SDS011;36331;51.378;0.018;2022-07-29T13:07:31;2.65;;;0.90;;
26060;SDS011;36331;51.378;0.018;2022-07-29T13:10:22;3.33;;;0.90;;
26060;SDS011;36331;51.378;0.018;2022-07-29T13:13:01;4.32;;;1.25;;
26060;SDS011;36331;51.378;0.018;2022-07-29T13:15:31;3.55;;;0.70;;
26060;SDS011;36331;51.378;0.018;2022-07-29T13:18:00;2.58;;;1.33;;
26060;SDS011;36331;51.378;0.018;2022-07-29T13:20:31;3.33;;;1.20;;
26060;SDS011;36331;51.378;0.018;2022-07-29T13:23:00;1.92;;;0.70;;
26060;SDS011;36331;51.378;0.018;2022-07-29T13:25:30;3.58;;;0.73;;
26060;SDS011;36331;51.378;0.018;2022-07-29T13:28:00;2.80;;;0.98;;
26060;SDS011;36331;51.378;0.018;2022-07-29T13:30:29;2.67;;;0.82;;
26060;SDS011;36331;51.378;0.018;2022-07-29T13:32:59;3.55;;;0.80;;
26060;SDS011;36331;51.378;0.018;2022-07-29T13:35:28;1.77;;;0.93;;
26060;SDS011;36331;51.378;0.018;2022-07-29T13:37:59;3.33;;;0.98;;
26060;SDS011;36331;51.378;0.018;2022-07-29T13:40:28;4.10;;;1.42;;
26060;SDS011;36331;51.378;0.018;2022-07-29T13:42:58;3.15;;;1.17;;
26060;SDS011;36331;51.378;0.018;2022-07-29T13:45:29;3.92;;;0.95;;
26060;SDS011;36331;51.378;0.018;2022-07-29T13:47:59;2.65;;;0.80;;
26060;SDS011;36331;51.378;0.018;2022-07-29T13:50:28;2.95;;;0.93;;
26060;SDS011;36331;51.378;0.018;2022-07-29T13:52:59;3.88;;;1.20;;
26060;SDS011;36331;51.378;0.018;2022-07-29T13:55:29;3.53;;;0.93;;
26060;SDS011;36331;51.378;0.018;2022-07-29T13:57:59;2.55;;;0.93;;
26060;SDS011;36331;51.378;0.018;2022-07-29T14:00:30;1.33;;;0.70;;
26060;SDS011;36331;51.378;0.018;2022-07-29T14:02:59;3.15;;;1.10;;
26060;SDS011;36331;51.378;0.018;2022-07-29T14:05:28;2.13;;;0.77;;
26060;SDS011;36331;51.378;0.018;2022-07-29T14:07:59;4.82;;;0.90;;
26060;SDS011;36331;51.378;0.018;2022-07-29T14:10:30;5.35;;;1.65;;
26060;SDS011;36331;51.378;0.018;2022-07-29T14:12:59;3.28;;;0.80;;
26060;SDS011;36331;51.378;0.018;2022-07-29T14:15:29;1.17;;;0.70;;
26060;SDS011;36331;51.378;0.018;2022-07-29T14:17:58;2.58;;;0.80;;
26060;SDS011;36331;51.378;0.018;2022-07-29T14:20:27;4.82;;;0.88;;
26060;SDS011;36331;51.378;0.018;2022-07-29T14:22:59;3.03;;;0.80;;
26060;SDS011;36331;51.378;0.018;2022-07-29T14:25:29;3.70;;;1.05;;
26060;SDS011;36331;51.378;0.018;2022-07-29T14:27:59;3.20;;;0.88;;
26060;SDS011;36331;51.378;0.018;2022-07-29T14:30:28;1.30;;;0.60;;
26060;SDS011;36331;51.378;0.018;2022-07-29T14:32:57;1.33;;;0.60;;
26060;SDS011;36331;51.378;0.018;2022-07-29T14:35:26;2.10;;;0.75;;
26060;SDS011;36331;51.378;0.018;2022-07-29T14:40:29;5.70;;;1.15;;
26060;SDS011;36331;51.378;0.018;2022-07-29T14:42:58;2.05;;;0.60;;
26060;SDS011;36331;51.378;0.018;2022-07-29T14:45:28;4.38;;;0.80;;
26060;SDS011;36331;51.378;0.018;2022-07-29T14:47:58;2.17;;;0.73;;
26060;SDS011;36331;51.378;0.018;2022-07-29T14:50:28;1.15;;;0.57;;
26060;SDS011;36331;51.378;0.018;2022-07-29T14:52:58;1.45;;;0.70;;
26060;SDS011;36331;51.378;0.018;2022-07-29T14:55:29;1.55;;;0.60;;
26060;SDS011;36331;51.378;0.018;2022-07-29T14:57:58;2.78;;;0.90;;
26060;SDS011;36331;51.378;0.018;2022-07-29T15:00:38;2.55;;;1.00;;
26060;SDS011;36331;51.378;0.018;2022-07-29T15:03:08;1.70;;;0.80;;
26060;SDS011;36331;51.378;0.018;2022-07-29T15:05:37;2.25;;;1.02;;
26060;SDS011;36331;51.378;0.018;2022-07-29T15:08:06;1.75;;;0.75;;
26060;SDS011;36331;51.378;0.018;2022-07-29T15:10:37;3.88;;;0.80;;
26060;SDS011;36331;51.378;0.018;2022-07-29T15:13:06;2.67;;;1.00;;
26060;SDS011;36331;51.378;0.018;2022-07-29T15:15:36;2.20;;;0.70;;
26060;SDS011;36331;51.378;0.018;2022-07-29T15:18:06;1.25;;;0.80;;
26060;SDS011;36331;51.378;0.018;2022-07-29T15:20:36;3.95;;;0.90;;
26060;SDS011;36331;51.378;0.018;2022-07-29T15:23:06;0.60;;;0.60;;
26060;SDS011;36331;51.378;0.018;2022-07-29T15:25:38;4.05;;;0.88;;
26060;SDS011;36331;51.378;0.018;2022-07-29T15:28:07;2.95;;;0.70;;
26060;SDS011;36331;51.378;0.018;2022-07-29T15:30:37;2.80;;;0.93;;
26060;SDS011;36331;51.378;0.018;2022-07-29T15:33:08;2.77;;;0.87;;
26060;SDS011;36331;51.378;0.018;2022-07-29T15:35:38;2.63;;;0.80;;
26060;SDS011;36331;51.378;0.018;2022-07-29T15:38:07;2.58;;;1.00;;
26060;SDS011;36331;51.378;0.018;2022-07-29T15:40:38;3.70;;;1.00;;
26060;SDS011;36331;51.378;0.018;2022-07-29T15:43:09;2.08;;;0.85;;